createdAt,value
2016-04-18T00:00:40.505Z,0
2016-04-18T00:01:40.539Z,0
2016-04-18T00:02:40.573Z,0
2016-04-18T00:03:40.576Z,0
2016-04-18T00:04:40.578Z,0
2016-04-18T00:05:40.613Z,0
2016-04-18T00:06:40.615Z,0
2016-04-18T00:07:40.618Z,0
2016-04-18T00:08:40.621Z,0
2016-04-18T00:09:40.639Z,0
2016-04-18T00:10:40.673Z,0
2016-04-18T00:11:40.675Z,0
2016-04-18T00:12:40.678Z,0
2016-04-18T00:13:40.680Z,0
2016-04-18T00:14:40.699Z,0
2016-04-18T00:15:41.269Z,0
2016-04-18T00:16:40.768Z,0
2016-04-18T00:17:40.845Z,0
2016-04-18T00:18:40.906Z,0
2016-04-18T00:19:40.812Z,0
2016-04-18T00:20:40.984Z,0
2016-04-18T00:21:40.862Z,0
2016-04-18T00:22:41.052Z,0
2016-04-18T00:23:41.085Z,0
2016-04-18T00:24:41.104Z,0
2016-04-18T00:25:41.133Z,0
2016-04-18T00:26:41.157Z,0
2016-04-18T00:27:41.181Z,0
2016-04-18T00:28:41.205Z,0
2016-04-18T00:29:41.214Z,0
2016-04-18T00:30:41.220Z,0
2016-04-18T00:31:41.256Z,0
2016-04-18T00:32:41.244Z,0
2016-04-18T00:33:41.265Z,0
2016-04-18T00:34:41.316Z,0
2016-04-18T00:35:41.289Z,0
2016-04-18T00:36:41.308Z,0
2016-04-18T00:37:41.327Z,0
2016-04-18T00:38:41.237Z,0
2016-04-18T00:39:41.350Z,0
2016-04-18T00:40:41.368Z,0
2016-04-18T00:41:41.387Z,0
2016-04-18T00:42:41.453Z,0
2016-04-18T00:43:41.441Z,0
2016-04-18T00:44:41.428Z,0
2016-04-18T00:45:41.431Z,0
2016-04-18T00:46:41.449Z,0
2016-04-18T00:47:41.452Z,0
2016-04-18T00:48:41.485Z,0
2016-04-18T00:49:41.505Z,0
2016-04-18T00:50:41.508Z,0
2016-04-18T00:51:41.510Z,0
2016-04-18T00:52:41.528Z,0
2016-04-18T00:53:41.561Z,0
2016-04-18T00:54:41.549Z,0
2016-04-18T00:55:41.567Z,0
2016-04-18T00:56:41.602Z,0
2016-04-18T00:57:41.588Z,0
2016-04-18T00:58:41.607Z,0
2016-04-18T00:59:41.625Z,0
2016-04-18T01:00:41.628Z,0
2016-04-18T01:01:41.646Z,0
2016-04-18T01:02:41.665Z,0
2016-04-18T01:03:41.682Z,0
2016-04-18T01:04:41.873Z,0
2016-04-18T01:05:41.688Z,0
2016-04-18T01:06:41.722Z,0
2016-04-18T01:07:41.709Z,0
2016-04-18T01:08:41.743Z,0
2016-04-18T01:09:41.761Z,0
2016-04-18T01:10:41.795Z,0
2016-04-18T01:11:41.782Z,0
2016-04-18T01:12:41.801Z,0
2016-04-18T01:13:41.803Z,0
2016-04-18T01:14:41.806Z,0
2016-04-18T01:15:41.824Z,0
2016-04-18T01:16:41.858Z,0
2016-04-18T01:17:41.876Z,0
2016-04-18T01:18:42.035Z,0
2016-04-18T01:19:41.898Z,0
2016-04-18T01:20:41.900Z,0
2016-04-18T01:21:41.918Z,0
2016-04-18T01:22:41.922Z,0
2016-04-18T01:23:41.939Z,0
2016-04-18T01:24:41.988Z,0
2016-04-18T01:25:41.977Z,0
2016-04-18T01:26:41.980Z,0
2016-04-18T01:27:41.996Z,0
2016-04-18T01:28:41.985Z,0
2016-04-18T01:29:42.018Z,0
2016-04-18T01:30:42.036Z,0
2016-04-18T01:31:42.086Z,0
2016-04-18T01:32:42.057Z,0
2016-04-18T01:33:42.076Z,0
2016-04-18T01:34:42.094Z,0
2016-04-18T01:35:42.097Z,0
2016-04-18T01:36:42.099Z,0
2016-04-18T01:37:42.102Z,0
2016-04-18T01:38:42.151Z,0
2016-04-18T01:39:42.139Z,0
2016-04-18T01:40:42.203Z,0
2016-04-18T01:41:42.176Z,0
2016-04-18T01:42:42.193Z,0
2016-04-18T01:43:42.212Z,0
2016-04-18T01:44:42.215Z,0
2016-04-18T01:45:42.218Z,0
2016-04-18T01:46:42.236Z,0
2016-04-18T01:47:42.270Z,0
2016-04-18T01:48:42.272Z,0
2016-04-18T01:49:42.275Z,0
2016-04-18T01:50:42.308Z,0
2016-04-18T01:51:42.296Z,0
2016-04-18T01:52:42.314Z,0
2016-04-18T01:53:42.348Z,0
2016-04-18T01:54:42.335Z,0
2016-04-18T01:55:42.353Z,0
2016-04-18T01:56:42.372Z,0
2016-04-18T01:57:42.406Z,0
2016-04-18T01:58:42.408Z,0
2016-04-18T01:59:42.411Z,0
2016-04-18T02:00:42.429Z,0
2016-04-18T02:01:42.463Z,0
2016-04-18T02:02:42.451Z,0
2016-04-18T02:03:42.468Z,0
2016-04-18T02:04:42.472Z,0
2016-04-18T02:05:42.474Z,0
2016-04-18T02:06:42.711Z,0
2016-04-18T02:07:43.073Z,0
2016-04-18T02:08:57.220Z,0
2016-04-18T02:09:43.016Z,0
2016-04-18T02:10:43.347Z,0
2016-04-18T02:11:43.256Z,0
2016-04-18T02:12:42.853Z,0
2016-04-18T02:13:43.449Z,0
2016-04-18T02:14:43.217Z,0
2016-04-18T02:15:43.392Z,0
2016-04-18T02:16:43.348Z,0
2016-04-18T02:17:43.397Z,0
2016-04-18T02:18:42.665Z,0
2016-04-18T02:19:42.668Z,0
2016-04-18T02:20:42.687Z,0
2016-04-18T02:21:42.548Z,0
2016-04-18T02:22:42.739Z,0
2016-04-18T02:23:42.757Z,0
2016-04-18T02:24:42.760Z,0
2016-04-18T02:25:42.762Z,0
2016-04-18T02:26:42.781Z,0
2016-04-18T02:27:42.627Z,0
2016-04-18T02:28:42.036Z,0
2016-04-18T02:29:42.820Z,0
2016-04-18T02:30:42.822Z,0
2016-04-18T02:31:42.841Z,0
2016-04-18T02:32:42.844Z,0
2016-04-18T02:33:42.862Z,0
2016-04-18T02:34:42.865Z,0
2016-04-18T02:35:42.899Z,0
2016-04-18T02:36:42.901Z,0
2016-04-18T02:37:42.920Z,0
2016-04-18T02:38:42.953Z,0
2016-04-18T02:39:42.941Z,0
2016-04-18T02:40:42.960Z,0
2016-04-18T02:41:42.962Z,0
2016-04-18T02:42:42.980Z,0
2016-04-18T02:43:42.998Z,0
2016-04-18T02:44:43.016Z,0
2016-04-18T02:45:43.034Z,0
2016-04-18T02:46:43.022Z,0
2016-04-18T02:47:43.056Z,0
2016-04-18T02:48:43.074Z,0
2016-04-18T02:49:43.061Z,0
2016-04-18T02:50:43.095Z,0
2016-04-18T02:51:43.114Z,0
2016-04-18T02:52:43.116Z,0
2016-04-18T02:53:43.119Z,0
2016-04-18T02:54:43.137Z,0
2016-04-18T02:55:42.984Z,0
2016-04-18T02:56:43.033Z,0
2016-04-18T02:57:43.192Z,0
2016-04-18T02:58:43.194Z,0
2016-04-18T02:59:43.214Z,0
2016-04-18T03:00:43.215Z,0
2016-04-18T03:01:43.391Z,0
2016-04-18T03:02:43.252Z,0
2016-04-18T03:03:43.271Z,0
2016-04-18T03:04:43.288Z,0
2016-04-18T03:05:43.307Z,0
2016-04-18T03:06:43.294Z,0
2016-04-18T03:07:43.313Z,0
2016-04-18T03:08:43.347Z,0
2016-04-18T03:09:43.335Z,0
2016-04-18T03:10:43.352Z,0
2016-04-18T03:11:43.371Z,0
2016-04-18T03:12:43.373Z,0
2016-04-18T03:13:43.392Z,0
2016-04-18T03:14:43.410Z,0
2016-04-18T03:15:43.413Z,0
2016-04-18T03:16:43.431Z,0
2016-04-18T03:17:43.449Z,0
2016-04-18T03:18:43.468Z,0
2016-04-18T03:19:43.470Z,0
2016-04-18T03:20:43.489Z,0
2016-04-18T03:21:43.522Z,0
2016-04-18T03:22:43.509Z,0
2016-04-18T03:23:43.528Z,0
2016-04-18T03:24:43.531Z,0
2016-04-18T03:25:43.549Z,0
2016-04-18T03:26:43.567Z,0
2016-04-18T03:27:43.585Z,0
2016-04-18T03:28:43.588Z,0
2016-04-18T03:29:43.590Z,0
2016-04-18T03:30:43.608Z,0
2016-04-18T03:31:43.627Z,0
2016-04-18T03:32:43.646Z,0
2016-04-18T03:33:43.664Z,0
2016-04-18T03:34:43.651Z,0
2016-04-18T03:35:43.716Z,0
2016-04-18T03:36:43.687Z,0
2016-04-18T03:37:43.737Z,0
2016-04-18T03:38:43.709Z,0
2016-04-18T03:39:43.665Z,0
2016-04-18T03:40:43.746Z,0
2016-04-18T03:41:43.795Z,0
2016-04-18T03:42:43.798Z,0
2016-04-18T03:43:43.816Z,0
2016-04-18T03:44:43.803Z,0
2016-04-18T03:45:43.821Z,0
2016-04-18T03:46:43.823Z,0
2016-04-18T03:47:43.874Z,0
2016-04-18T03:48:43.892Z,0
2016-04-18T03:49:43.879Z,0
2016-04-18T03:50:43.897Z,0
2016-04-18T03:51:43.947Z,0
2016-04-18T03:52:43.918Z,0
2016-04-18T03:53:43.936Z,0
2016-04-18T03:54:44.205Z,0
2016-04-18T03:55:43.941Z,0
2016-04-18T03:56:43.991Z,0
2016-04-18T03:57:44.025Z,0
2016-04-18T03:58:43.981Z,0
2016-04-18T03:59:44.000Z,0
2016-04-18T04:00:44.033Z,0
2016-04-18T04:01:44.036Z,0
2016-04-18T04:02:44.055Z,0
2016-04-18T04:03:44.073Z,0
2016-04-18T04:04:44.075Z,0
2016-04-18T04:05:44.110Z,0
2016-04-18T04:06:44.096Z,0
2016-04-18T04:07:44.115Z,0
2016-04-18T04:08:44.118Z,0
2016-04-18T04:09:44.323Z,0
2016-04-18T04:10:44.154Z,0
2016-04-18T04:11:44.204Z,0
2016-04-18T04:12:44.191Z,0
2016-04-18T04:13:44.474Z,0
2016-04-18T04:14:44.212Z,0
2016-04-18T04:15:44.230Z,0
2016-04-18T04:16:44.232Z,0
2016-04-18T04:17:44.267Z,0
2016-04-18T04:18:44.254Z,0
2016-04-18T04:19:44.272Z,0
2016-04-18T04:20:44.275Z,0
2016-04-18T04:21:44.277Z,0
2016-04-18T04:22:44.296Z,0
2016-04-18T04:23:44.345Z,0
2016-04-18T04:24:44.411Z,0
2016-04-18T04:25:44.367Z,0
2016-04-18T04:26:44.338Z,0
2016-04-18T04:27:44.372Z,0
2016-04-18T04:28:44.374Z,0
2016-04-18T04:29:44.425Z,0
2016-04-18T04:30:44.411Z,0
2016-04-18T04:31:44.430Z,0
2016-04-18T04:32:44.479Z,0
2016-04-18T04:33:44.450Z,0
2016-04-18T04:34:44.453Z,0
2016-04-18T04:35:44.487Z,0
2016-04-18T04:36:44.490Z,0
2016-04-18T04:37:44.507Z,0
2016-04-18T04:38:44.510Z,0
2016-04-18T04:39:44.732Z,0
2016-04-18T04:40:44.547Z,0
2016-04-18T04:41:44.566Z,0
2016-04-18T04:42:44.568Z,0
2016-04-18T04:43:44.587Z,0
2016-04-18T04:44:44.448Z,0
2016-04-18T04:45:44.607Z,0
2016-04-18T04:46:44.641Z,0
2016-04-18T04:47:44.643Z,0
2016-04-18T04:48:44.677Z,0
2016-04-18T04:49:44.695Z,0
2016-04-18T04:50:44.667Z,0
2016-04-18T04:51:44.701Z,0
2016-04-18T04:52:44.703Z,0
2016-04-18T04:53:44.738Z,0
2016-04-18T04:54:44.850Z,0
2016-04-18T04:55:44.977Z,0
2016-04-18T04:56:44.761Z,0
2016-04-18T04:57:44.796Z,0
2016-04-18T04:58:44.782Z,0
2016-04-18T04:59:44.801Z,0
2016-04-18T05:00:44.835Z,0
2016-04-18T05:01:44.852Z,0
2016-04-18T05:02:44.840Z,0
2016-04-18T05:03:44.857Z,0
2016-04-18T05:04:44.860Z,0
2016-04-18T05:05:44.863Z,0
2016-04-18T05:06:44.882Z,0
2016-04-18T05:07:44.916Z,0
2016-04-18T05:08:44.965Z,0
2016-04-18T05:09:44.890Z,0
2016-04-18T05:10:44.939Z,0
2016-04-18T05:11:44.958Z,0
2016-04-18T05:12:44.976Z,0
2016-04-18T05:13:44.978Z,0
2016-04-18T05:14:44.997Z,0
2016-04-18T05:15:45.031Z,0
2016-04-18T05:16:45.003Z,0
2016-04-18T05:17:45.052Z,0
2016-04-18T05:18:45.039Z,0
2016-04-18T05:19:45.057Z,0
2016-04-18T05:20:45.091Z,0
2016-04-18T05:21:45.016Z,0
2016-04-18T05:22:45.128Z,0
2016-04-18T05:23:45.115Z,0
2016-04-18T05:24:45.446Z,0
2016-04-18T05:25:45.136Z,0
2016-04-18T05:26:45.154Z,0
2016-04-18T05:27:45.157Z,0
2016-04-18T05:28:45.190Z,0
2016-04-18T05:29:45.183Z,0
2016-04-18T05:30:45.249Z,0
2016-04-18T05:31:45.221Z,0
2016-04-18T05:32:45.239Z,0
2016-04-18T05:33:45.241Z,0
2016-04-18T05:34:45.244Z,0
2016-04-18T05:35:45.262Z,0
2016-04-18T05:36:45.312Z,0
2016-04-18T05:37:45.330Z,0
2016-04-18T05:38:45.302Z,0
2016-04-18T05:39:45.352Z,0
2016-04-18T05:40:45.354Z,0
2016-04-18T05:41:45.357Z,0
2016-04-18T05:42:45.359Z,0
2016-04-18T05:43:45.440Z,0
2016-04-18T05:44:45.598Z,0
2016-04-18T05:45:45.398Z,0
2016-04-18T05:46:45.401Z,0
2016-04-18T05:47:45.434Z,0
2016-04-18T05:48:45.454Z,0
2016-04-18T05:49:45.456Z,0
2016-04-18T05:50:45.522Z,0
2016-04-18T05:51:45.524Z,0
2016-04-18T05:52:45.386Z,0
2016-04-18T05:53:45.498Z,0
2016-04-18T05:54:46.017Z,0
2016-04-18T05:55:45.536Z,0
2016-04-18T05:56:45.554Z,0
2016-04-18T05:57:45.587Z,0
2016-04-18T05:58:45.575Z,0
2016-04-18T05:59:45.608Z,0
2016-04-18T06:00:45.595Z,0
2016-04-18T06:01:45.613Z,0
2016-04-18T06:02:45.616Z,0
2016-04-18T06:03:45.635Z,0
2016-04-18T06:04:45.685Z,0
2016-04-18T06:05:45.656Z,0
2016-04-18T06:06:45.674Z,0
2016-04-18T06:07:45.693Z,0
2016-04-18T06:08:45.695Z,0
2016-04-18T06:09:45.651Z,0
2016-04-18T06:10:45.715Z,0
2016-04-18T06:11:45.765Z,0
2016-04-18T06:12:45.768Z,0
2016-04-18T06:13:45.755Z,0
2016-04-18T06:14:45.805Z,0
2016-04-18T06:15:45.792Z,0
2016-04-18T06:16:45.810Z,0
2016-04-18T06:17:45.828Z,0
2016-04-18T06:18:45.832Z,0
2016-04-18T06:19:45.881Z,0
2016-04-18T06:20:45.868Z,5
2016-04-18T06:21:45.870Z,5
2016-04-18T06:22:45.889Z,5
2016-04-18T06:23:45.906Z,0
2016-04-18T06:24:45.863Z,0
2016-04-18T06:25:45.944Z,5
2016-04-18T06:26:45.947Z,0
2016-04-18T06:27:45.997Z,0
2016-04-18T06:28:45.967Z,0
2016-04-18T06:29:45.970Z,5
2016-04-18T06:30:46.005Z,5
2016-04-18T06:31:46.007Z,5
2016-04-18T06:32:46.041Z,5
2016-04-18T06:33:46.043Z,5
2016-04-18T06:34:46.062Z,5
2016-04-18T06:35:46.064Z,5
2016-04-18T06:36:46.083Z,10
2016-04-18T06:37:46.086Z,10
2016-04-18T06:38:46.104Z,5
2016-04-18T06:39:46.012Z,5
2016-04-18T06:40:46.172Z,5
2016-04-18T06:41:46.143Z,5
2016-04-18T06:42:46.318Z,5
2016-04-18T06:43:46.165Z,5
2016-04-18T06:44:46.182Z,5
2016-04-18T06:45:46.201Z,5
2016-04-18T06:46:46.234Z,10
2016-04-18T06:47:46.784Z,10
2016-04-18T06:48:46.084Z,10
2016-04-18T06:49:46.274Z,10
2016-04-18T06:50:46.277Z,10
2016-04-18T06:51:46.279Z,10
2016-04-18T06:52:46.314Z,10
2016-04-18T06:53:46.300Z,10
2016-04-18T06:54:46.178Z,10
2016-04-18T06:55:46.322Z,10
2016-04-18T06:56:46.371Z,10
2016-04-18T06:57:46.342Z,15
2016-04-18T06:58:46.361Z,15
2016-04-18T06:59:46.394Z,15
2016-04-18T07:00:46.413Z,15
2016-04-18T07:01:46.383Z,15
2016-04-18T07:02:46.433Z,20
2016-04-18T07:03:46.421Z,20
2016-04-18T07:04:46.454Z,20
2016-04-18T07:05:46.473Z,20
2016-04-18T07:06:46.476Z,20
2016-04-18T07:07:46.525Z,15
2016-04-18T07:08:46.513Z,20
2016-04-18T07:09:46.469Z,20
2016-04-18T07:10:46.549Z,20
2016-04-18T07:11:46.552Z,25
2016-04-18T07:12:46.554Z,25
2016-04-18T07:13:46.760Z,20
2016-04-18T07:14:46.559Z,20
2016-04-18T07:15:46.594Z,15
2016-04-18T07:16:46.612Z,15
2016-04-18T07:17:46.631Z,15
2016-04-18T07:18:46.617Z,20
2016-04-18T07:19:46.651Z,20
2016-04-18T07:20:46.669Z,20
2016-04-18T07:21:46.680Z,15
2016-04-18T07:22:46.682Z,15
2016-04-18T07:23:46.716Z,15
2016-04-18T07:24:46.781Z,20
2016-04-18T07:25:46.769Z,25
2016-04-18T07:26:46.739Z,25
2016-04-18T07:27:46.867Z,20
2016-04-18T07:28:46.761Z,20
2016-04-18T07:29:46.779Z,15
2016-04-18T07:30:46.797Z,10
2016-04-18T07:31:46.847Z,10
2016-04-18T07:32:46.834Z,10
2016-04-18T07:33:46.837Z,10
2016-04-18T07:34:46.824Z,10
2016-04-18T07:35:46.857Z,10
2016-04-18T07:36:46.860Z,10
2016-04-18T07:37:46.909Z,10
2016-04-18T07:38:46.912Z,10
2016-04-18T07:39:46.931Z,10
2016-04-18T07:40:46.917Z,10
2016-04-18T07:41:46.936Z,15
2016-04-18T07:42:47.564Z,15
2016-04-18T07:43:46.972Z,15
2016-04-18T07:44:46.975Z,20
2016-04-18T07:45:46.978Z,20
2016-04-18T07:46:47.027Z,20
2016-04-18T07:47:47.030Z,20
2016-04-18T07:48:47.064Z,20
2016-04-18T07:49:47.067Z,20
2016-04-18T07:50:47.101Z,25
2016-04-18T07:51:47.073Z,25
2016-04-18T07:52:47.294Z,25
2016-04-18T07:53:47.125Z,25
2016-04-18T07:54:47.127Z,20
2016-04-18T07:55:47.114Z,20
2016-04-18T07:56:47.163Z,25
2016-04-18T07:57:47.010Z,20
2016-04-18T07:58:47.169Z,20
2016-04-18T07:59:47.203Z,15
2016-04-18T08:00:47.190Z,15
2016-04-18T08:01:47.240Z,15
2016-04-18T08:02:47.835Z,15
2016-04-18T08:03:47.246Z,15
2016-04-18T08:04:47.232Z,15
2016-04-18T08:05:47.251Z,15
2016-04-18T08:06:47.300Z,15
2016-04-18T08:07:47.287Z,15
2016-04-18T08:08:47.306Z,20
2016-04-18T08:09:47.355Z,20
2016-04-18T08:10:47.342Z,20
2016-04-18T08:11:47.329Z,20
2016-04-18T08:12:47.206Z,15
2016-04-18T08:13:47.397Z,15
2016-04-18T08:14:47.400Z,10
2016-04-18T08:15:47.402Z,10
2016-04-18T08:16:47.436Z,10
2016-04-18T08:17:47.423Z,15
2016-04-18T08:18:47.458Z,15
2016-04-18T08:19:47.475Z,15
2016-04-18T08:20:47.307Z,15
2016-04-18T08:21:47.559Z,15
2016-04-18T08:22:47.531Z,15
2016-04-18T08:23:47.503Z,15
2016-04-18T08:24:47.521Z,20
2016-04-18T08:25:47.539Z,20
2016-04-18T08:26:47.541Z,20
2016-04-18T08:27:47.560Z,20
2016-04-18T08:28:47.624Z,20
2016-04-18T08:29:47.596Z,20
2016-04-18T08:30:47.615Z,20
2016-04-18T08:31:47.618Z,20
2016-04-18T08:32:47.667Z,20
2016-04-18T08:33:47.655Z,25
2016-04-18T08:34:47.672Z,25
2016-04-18T08:35:47.690Z,30
2016-04-18T08:36:47.694Z,35
2016-04-18T08:37:47.759Z,35
2016-04-18T08:38:47.730Z,35
2016-04-18T08:39:47.749Z,30
2016-04-18T08:40:47.767Z,30
2016-04-18T08:41:47.754Z,25
2016-04-18T08:42:47.803Z,25
2016-04-18T08:43:47.806Z,25
2016-04-18T08:44:47.793Z,25
2016-04-18T08:45:47.812Z,25
2016-04-18T08:46:47.829Z,25
2016-04-18T08:47:47.848Z,20
2016-04-18T08:48:47.725Z,20
2016-04-18T08:49:47.884Z,20
2016-04-18T08:50:47.903Z,20
2016-04-18T08:51:47.890Z,20
2016-04-18T08:52:47.909Z,20
2016-04-18T08:53:47.927Z,20
2016-04-18T08:54:47.961Z,25
2016-04-18T08:55:48.151Z,25
2016-04-18T08:56:47.950Z,25
2016-04-18T08:57:47.968Z,25
2016-04-18T08:58:48.018Z,20
2016-04-18T08:59:48.005Z,25
2016-04-18T09:00:48.038Z,20
2016-04-18T09:01:48.042Z,25
2016-04-18T09:02:48.060Z,25
2016-04-18T09:03:49.547Z,25
2016-04-18T09:04:48.909Z,25
2016-04-18T09:05:51.178Z,20
2016-04-18T09:06:49.212Z,20
2016-04-18T09:07:48.136Z,20
2016-04-18T09:08:48.139Z,20
2016-04-18T09:09:48.158Z,20
2016-04-18T09:10:48.175Z,20
2016-04-18T09:11:48.162Z,20
2016-04-18T09:12:48.229Z,20
2016-04-18T09:13:48.230Z,20
2016-04-18T09:14:48.265Z,20
2016-04-18T09:15:48.236Z,20
2016-04-18T09:16:48.239Z,20
2016-04-18T09:18:48.275Z,20
2016-04-18T09:19:48.293Z,20
2016-04-18T09:20:48.406Z,20
2016-04-18T09:21:48.683Z,20
2016-04-18T09:22:48.415Z,20
2016-04-18T09:23:48.460Z,20
2016-04-18T09:24:48.505Z,20
2016-04-18T09:25:48.720Z,20
2016-04-18T09:26:48.609Z,25
2016-04-18T09:27:48.658Z,25
2016-04-18T09:28:48.677Z,20
2016-04-18T09:29:48.694Z,25
2016-04-18T09:30:48.744Z,25
2016-04-18T09:31:50.928Z,30
2016-04-18T09:32:52.233Z,30
2016-04-18T09:33:50.443Z,35
2016-04-18T09:34:48.795Z,35
2016-04-18T09:35:48.835Z,40
2016-04-18T09:36:48.903Z,40
2016-04-18T09:37:48.861Z,45
2016-04-18T09:38:52.038Z,40
2016-04-18T09:39:52.370Z,45
2016-04-18T09:40:48.968Z,45
2016-04-18T09:41:48.910Z,50
2016-04-18T09:42:52.164Z,50
2016-04-18T09:43:51.011Z,45
2016-04-18T09:44:48.967Z,45
2016-04-18T09:45:48.986Z,40
2016-04-18T09:46:48.974Z,40
2016-04-18T09:47:49.008Z,35
2016-04-18T09:48:49.042Z,35
2016-04-18T09:49:49.029Z,40
2016-04-18T09:50:49.046Z,35
2016-04-18T09:51:49.080Z,30
2016-04-18T09:52:49.068Z,25
2016-04-18T09:53:49.085Z,25
2016-04-18T09:54:49.104Z,30
2016-04-18T09:55:49.170Z,35
2016-04-18T09:56:49.141Z,40
2016-04-18T09:57:49.144Z,50
2016-04-18T09:58:49.178Z,50
2016-04-18T09:59:49.196Z,50
2016-04-18T10:00:49.184Z,55
2016-04-18T10:01:49.201Z,55
2016-04-18T10:02:49.251Z,55
2016-04-18T10:03:49.284Z,55
2016-04-18T10:04:49.240Z,55
2016-04-18T10:05:49.243Z,50
2016-04-18T10:06:49.278Z,50
2016-04-18T10:07:49.281Z,45
2016-04-18T10:08:49.298Z,40
2016-04-18T10:09:49.348Z,40
2016-04-18T10:10:49.492Z,40
2016-04-18T10:11:49.384Z,40
2016-04-18T10:12:49.359Z,40
2016-04-18T10:13:49.393Z,45
2016-04-18T10:14:49.411Z,40
2016-04-18T10:15:49.414Z,45
2016-04-18T10:16:49.417Z,50
2016-04-18T10:17:49.467Z,50
2016-04-18T10:18:49.453Z,45
2016-04-18T10:19:49.455Z,50
2016-04-18T10:20:49.474Z,55
2016-04-18T10:21:49.477Z,60
2016-04-18T10:22:49.496Z,55
2016-04-18T10:23:50.716Z,50
2016-04-18T10:24:49.547Z,40
2016-04-18T10:25:49.597Z,35
2016-04-18T10:26:50.021Z,35
2016-04-18T10:27:50.962Z,40
2016-04-18T10:28:49.590Z,40
2016-04-18T10:29:49.608Z,45
2016-04-18T10:30:49.610Z,45
2016-04-18T10:31:49.613Z,50
2016-04-18T10:32:49.631Z,50
2016-04-18T10:33:49.681Z,60
2016-04-18T10:34:51.293Z,60
2016-04-18T10:35:50.796Z,60
2016-04-18T10:36:49.705Z,60
2016-04-18T10:37:49.707Z,60
2016-04-18T10:38:49.726Z,55
2016-04-18T10:39:49.744Z,55
2016-04-18T10:40:50.076Z,55
2016-04-18T10:41:49.764Z,55
2016-04-18T10:42:49.783Z,60
2016-04-18T10:43:49.911Z,60
2016-04-18T10:44:49.836Z,65
2016-04-18T10:45:49.838Z,60
2016-04-18T10:46:49.857Z,55
2016-04-18T10:47:49.859Z,55
2016-04-18T10:48:49.909Z,60
2016-04-18T10:49:49.881Z,60
2016-04-18T10:50:49.915Z,65
2016-04-18T10:51:49.916Z,65
2016-04-18T10:52:49.951Z,65
2016-04-18T10:53:49.954Z,60
2016-04-18T10:54:50.019Z,60
2016-04-18T10:55:50.021Z,60
2016-04-18T10:56:50.524Z,55
2016-04-18T10:57:50.011Z,45
2016-04-18T10:58:50.013Z,40
2016-04-18T10:59:50.049Z,35
2016-04-18T11:00:50.035Z,35
2016-04-18T11:01:50.085Z,30
2016-04-18T11:02:50.071Z,30
2016-04-18T11:03:50.106Z,30
2016-04-18T11:04:50.123Z,35
2016-04-18T11:05:50.142Z,35
2016-04-18T11:06:50.129Z,35
2016-04-18T11:07:50.178Z,40
2016-04-18T11:08:50.165Z,45
2016-04-18T11:09:50.231Z,45
2016-04-18T11:10:50.468Z,55
2016-04-18T11:11:50.220Z,60
2016-04-18T11:12:50.223Z,65
2016-04-18T11:13:50.258Z,60
2016-04-18T11:14:50.275Z,60
2016-04-18T11:15:50.279Z,60
2016-04-18T11:16:50.141Z,60
2016-04-18T11:17:50.315Z,55
2016-04-18T11:18:50.349Z,50
2016-04-18T11:19:50.352Z,45
2016-04-18T11:20:50.355Z,35
2016-04-18T11:21:50.638Z,30
2016-04-18T11:22:50.283Z,30
2016-04-18T11:23:50.410Z,30
2016-04-18T11:24:50.428Z,35
2016-04-18T11:25:50.493Z,35
2016-04-18T11:26:50.464Z,30
2016-04-18T11:27:50.466Z,30
2016-04-18T11:28:50.486Z,30
2016-04-18T11:29:50.504Z,25
2016-04-18T11:30:50.521Z,20
2016-04-18T11:31:50.556Z,20
2016-04-18T11:32:54.793Z,20
2016-04-18T11:33:50.562Z,25
2016-04-18T11:34:50.565Z,25
2016-04-18T11:35:50.582Z,30
2016-04-18T11:36:50.615Z,35
2016-04-18T11:37:50.618Z,35
2016-04-18T11:38:50.637Z,35
2016-04-18T11:39:50.640Z,35
2016-04-18T11:40:50.784Z,35
2016-04-18T11:41:50.692Z,40
2016-04-18T11:42:50.695Z,45
2016-04-18T11:43:50.713Z,50
2016-04-18T11:44:50.731Z,60
2016-04-18T11:45:50.734Z,65
2016-04-18T11:46:50.753Z,65
2016-04-18T11:47:50.958Z,60
2016-04-18T11:48:50.789Z,65
2016-04-18T11:49:50.792Z,70
2016-04-18T11:50:50.810Z,80
2016-04-18T11:51:50.844Z,85
2016-04-18T11:52:50.847Z,90
2016-04-18T11:53:50.881Z,90
2016-04-18T11:54:51.072Z,105
2016-04-18T11:55:50.902Z,140
2016-04-18T11:56:50.905Z,175
2016-04-18T11:57:50.922Z,125
2016-04-18T11:58:50.972Z,110
2016-04-18T11:59:50.959Z,95
2016-04-18T12:00:50.993Z,85
2016-04-18T12:01:50.996Z,75
2016-04-18T12:02:51.015Z,90
2016-04-18T12:03:51.017Z,160
2016-04-18T12:04:51.036Z,85
2016-04-18T12:05:51.068Z,90
2016-04-18T12:06:51.087Z,115
2016-04-18T12:07:51.074Z,120
2016-04-18T12:08:51.109Z,80
2016-04-18T12:09:51.112Z,70
2016-04-18T12:10:51.161Z,55
2016-04-18T12:11:51.164Z,50
2016-04-18T12:12:51.182Z,45
2016-04-18T12:13:51.200Z,50
2016-04-18T12:14:51.203Z,55
2016-04-18T12:15:51.236Z,55
2016-04-18T12:16:51.239Z,55
2016-04-18T12:17:51.273Z,50
2016-04-18T12:18:51.275Z,50
2016-04-18T12:19:51.278Z,45
2016-04-18T12:20:51.313Z,40
2016-04-18T12:21:51.331Z,45
2016-04-18T12:22:51.349Z,45
2016-04-18T12:23:51.353Z,55
2016-04-18T12:24:51.385Z,55
2016-04-18T12:25:51.357Z,55
2016-04-18T12:26:51.423Z,55
2016-04-18T12:27:51.441Z,50
2016-04-18T12:28:51.460Z,45
2016-04-18T12:29:51.494Z,45
2016-04-18T12:30:51.480Z,40
2016-04-18T12:31:51.499Z,45
2016-04-18T12:32:51.517Z,45
2016-04-18T12:33:51.535Z,50
2016-04-18T12:34:51.569Z,55
2016-04-18T12:35:51.588Z,55
2016-04-18T12:36:51.590Z,60
2016-04-18T12:37:51.484Z,65
2016-04-18T12:38:51.612Z,60
2016-04-18T12:39:51.660Z,60
2016-04-18T12:40:51.882Z,60
2016-04-18T12:41:51.682Z,60
2016-04-18T12:42:51.684Z,60
2016-04-18T12:43:51.796Z,60
2016-04-18T12:44:51.768Z,60
2016-04-18T12:45:51.739Z,60
2016-04-18T12:46:51.758Z,60
2016-04-18T12:47:51.776Z,60
2016-04-18T12:48:51.795Z,60
2016-04-18T12:49:51.812Z,60
2016-04-18T12:50:51.878Z,60
2016-04-18T12:51:51.850Z,60
2016-04-18T12:52:51.867Z,60
2016-04-18T12:53:51.886Z,55
2016-04-18T12:54:51.888Z,50
2016-04-18T12:55:52.141Z,50
2016-04-18T12:56:51.941Z,55
2016-04-18T12:57:51.833Z,55
2016-04-18T12:58:51.994Z,60
2016-04-18T12:59:52.152Z,60
2016-04-18T13:00:52.013Z,60
2016-04-18T13:01:52.017Z,60
2016-04-18T13:02:52.035Z,65
2016-04-18T13:03:52.038Z,65
2016-04-18T13:04:52.072Z,65
2016-04-18T13:05:52.105Z,65
2016-04-18T13:06:52.123Z,65
2016-04-18T13:07:52.127Z,60
2016-04-18T13:08:52.145Z,60
2016-04-18T13:09:52.163Z,65
2016-04-18T13:10:52.182Z,70
2016-04-18T13:11:52.201Z,75
2016-04-18T13:12:52.249Z,70
2016-04-18T13:13:52.284Z,70
2016-04-18T13:14:52.270Z,65
2016-04-18T13:15:52.257Z,65
2016-04-18T13:16:52.292Z,65
2016-04-18T13:17:52.309Z,55
2016-04-18T13:18:52.359Z,55
2016-04-18T13:19:52.362Z,55
2016-04-18T13:20:52.442Z,50
2016-04-18T13:21:52.398Z,50
2016-04-18T13:22:52.417Z,45
2016-04-18T13:23:52.419Z,45
2016-04-18T13:24:52.422Z,40
2016-04-18T13:25:52.441Z,35
2016-04-18T13:26:52.475Z,35
2016-04-18T13:27:52.508Z,35
2016-04-18T13:28:52.496Z,30
2016-04-18T13:29:52.545Z,25
2016-04-18T13:30:52.533Z,25
2016-04-18T13:31:52.550Z,25
2016-04-18T13:32:52.568Z,25
2016-04-18T13:33:52.602Z,25
2016-04-18T13:34:52.605Z,25
2016-04-18T13:35:52.640Z,25
2016-04-18T13:36:52.642Z,30
2016-04-18T13:37:52.676Z,25
2016-04-18T13:38:52.679Z,25
2016-04-18T13:39:52.713Z,20
2016-04-18T13:40:52.699Z,20
2016-04-18T13:41:52.749Z,20
2016-04-18T13:42:52.767Z,25
2016-04-18T13:43:52.818Z,25
2016-04-18T13:44:52.789Z,30
2016-04-18T13:45:52.807Z,30
2016-04-18T13:46:52.809Z,30
2016-04-18T13:47:52.843Z,30
2016-04-18T13:48:52.862Z,25
2016-04-18T13:49:52.881Z,25
2016-04-18T13:50:52.898Z,25
2016-04-18T13:51:52.901Z,20
2016-04-18T13:52:52.936Z,20
2016-04-18T13:53:52.938Z,20
2016-04-18T13:54:52.956Z,20
2016-04-18T13:55:52.974Z,20
2016-04-18T13:56:52.992Z,20
2016-04-18T13:57:53.011Z,20
2016-04-18T13:58:53.061Z,20
2016-04-18T13:59:53.047Z,20
2016-04-18T14:00:52.910Z,25
2016-04-18T14:01:53.084Z,25
2016-04-18T14:02:52.977Z,25
2016-04-18T14:03:53.136Z,25
2016-04-18T14:04:53.249Z,25
2016-04-18T14:05:53.173Z,30
2016-04-18T14:06:53.177Z,30
2016-04-18T14:07:53.179Z,35
2016-04-18T14:08:53.213Z,35
2016-04-18T14:09:53.215Z,30
2016-04-18T14:10:53.218Z,30
2016-04-18T14:11:53.267Z,30
2016-04-18T14:12:53.271Z,30
2016-04-18T14:13:53.288Z,25
2016-04-18T14:14:53.307Z,25
2016-04-18T14:15:53.528Z,25
2016-04-18T14:16:53.187Z,25
2016-04-18T14:17:53.361Z,20
2016-04-18T14:18:53.381Z,20
2016-04-18T14:19:53.429Z,25
2016-04-18T14:20:53.416Z,25
2016-04-18T14:21:53.420Z,25
2016-04-18T14:22:53.453Z,30
2016-04-18T14:23:53.487Z,30
2016-04-18T14:24:53.489Z,35
2016-04-18T14:25:53.492Z,35
2016-04-18T14:26:53.495Z,35
2016-04-18T14:27:53.530Z,30
2016-04-18T14:28:53.548Z,30
2016-04-18T14:29:53.566Z,30
2016-04-18T14:30:53.583Z,30